Time;durP1;ratioP1;P1;durP2;ratioP2;P2;SDS_P1;SDS_P2;PMS_P1;PMS_P2;Temp;Humidity;BMP_temperature;BMP_pressure;BME280_temperature;BME280_humidity;BME280_pressure;Samples;Min_cycle;Max_cycle;Signal;HPM_P1;HPM_P2
2023/01/12 00:00:56;;;;;;;8.70;2.30;;;7.50;99.90;;;;;;5012911;28;20064;-62
2023/01/12 00:03:21;;;;;;;12.05;2.65;;;7.60;99.90;;;;;;5021218;28;20124;-63
2023/01/12 00:05:47;;;;;;;12.77;2.58;;;7.60;99.90;;;;;;5018716;28;20080;-62
2023/01/12 00:08:12;;;;;;;14.25;2.65;;;7.60;99.90;;;;;;5018076;28;20049;-61
2023/01/12 00:10:38;;;;;;;10.18;2.45;;;7.70;99.90;;;;;;5019670;28;20075;-62
2023/01/12 00:13:03;;;;;;;12.10;2.83;;;7.70;99.90;;;;;;5017915;28;20072;-61
2023/01/12 00:18:13;;;;;;;13.80;3.22;;;7.50;99.90;;;;;;5019273;28;20041;-61
2023/01/12 00:20:38;;;;;;;15.40;2.83;;;7.60;99.90;;;;;;5021887;28;20048;-62
2023/01/12 00:23:05;;;;;;;13.30;3.00;;;7.50;99.90;;;;;;5023649;28;20041;-63
2023/01/12 00:25:30;;;;;;;24.10;4.45;;;7.50;99.90;;;;;;5020542;28;20049;-63
2023/01/12 00:27:56;;;;;;;17.23;3.30;;;7.60;99.90;;;;;;5014112;28;20534;-61
2023/01/12 00:30:22;;;;;;;14.55;2.97;;;7.50;99.90;;;;;;5018639;28;20545;-63
2023/01/12 00:32:48;;;;;;;16.98;3.92;;;7.40;99.90;;;;;;5024845;28;20057;-61
2023/01/12 00:35:16;;;;;;;14.88;3.60;;;7.50;99.90;;;;;;5021899;28;21085;-61
2023/01/12 00:37:41;;;;;;;12.32;3.03;;;7.50;99.90;;;;;;5013081;28;20037;-62
2023/01/12 00:40:08;;;;;;;15.63;3.72;;;7.50;99.90;;;;;;5014552;28;20052;-62
2023/01/12 00:45:21;;;;;;;17.00;3.85;;;7.40;99.90;;;;;;5022412;28;20065;-61
2023/01/12 00:47:47;;;;;;;22.30;3.17;;;7.40;99.90;;;;;;5022016;28;20235;-61
2023/01/12 00:50:13;;;;;;;12.75;3.10;;;7.40;99.90;;;;;;5021046;28;20122;-62
2023/01/12 00:52:38;;;;;;;17.52;2.95;;;7.50;99.90;;;;;;5022303;28;20123;-61
2023/01/12 00:55:05;;;;;;;16.48;3.42;;;7.40;99.90;;;;;;5014488;28;20034;-62
2023/01/12 00:57:30;;;;;;;13.60;3.00;;;7.40;99.90;;;;;;5018086;28;20042;-61
2023/01/12 00:59:58;;;;;;;21.25;5.10;;;7.50;99.90;;;;;;5012138;28;20045;-62
2023/01/12 01:02:25;;;;;;;13.43;2.88;;;7.60;99.90;;;;;;5019560;28;20049;-61
2023/01/12 01:04:50;;;;;;;14.85;2.90;;;7.50;99.90;;;;;;5021450;28;20416;-62
2023/01/12 01:07:17;;;;;;;19.02;3.30;;;7.50;99.90;;;;;;5021029;28;20041;-62
2023/01/12 01:09:43;;;;;;;15.48;3.08;;;7.50;99.90;;;;;;5023078;28;20056;-62
2023/01/12 01:12:09;;;;;;;18.70;3.70;;;7.60;99.90;;;;;;5021591;28;20061;-62
2023/01/12 01:14:34;;;;;;;14.82;3.25;;;7.60;99.90;;;;;;5011778;28;20474;-62
2023/01/12 01:17:00;;;;;;;21.92;3.50;;;7.70;99.90;;;;;;5014013;28;21154;-64
2023/01/12 01:19:25;;;;;;;13.88;2.97;;;7.70;99.90;;;;;;5016442;28;20052;-62
2023/01/12 01:21:51;;;;;;;15.85;3.85;;;7.80;99.90;;;;;;5018047;28;20042;-62
2023/01/12 01:24:17;;;;;;;22.23;3.45;;;7.80;99.90;;;;;;5007888;28;20042;-63
2023/01/12 01:26:42;;;;;;;18.75;4.72;;;7.80;99.90;;;;;;5014358;28;20046;-62
2023/01/12 01:29:08;;;;;;;16.85;3.17;;;7.80;99.90;;;;;;5014890;28;20042;-62
2023/01/12 01:31:34;;;;;;;18.30;3.05;;;7.70;99.90;;;;;;5019039;28;20133;-61
2023/01/12 01:34:00;;;;;;;19.02;3.97;;;7.70;99.90;;;;;;5020628;28;20485;-63
2023/01/12 01:36:26;;;;;;;14.38;3.08;;;7.70;99.90;;;;;;5022356;28;20112;-61
2023/01/12 01:38:51;;;;;;;16.35;3.47;;;7.70;99.90;;;;;;5026191;28;20492;-61
2023/01/12 01:41:30;;;;;;;19.15;3.30;;;7.80;99.90;;;;;;5022862;28;20040;-62
2023/01/12 01:44:01;;;;;;;16.25;3.17;;;7.90;99.90;;;;;;5013072;28;20050;-64
2023/01/12 01:46:49;;;;;;;21.77;3.47;;;7.80;99.90;;;;;;5009391;28;20053;-61
2023/01/12 01:49:39;;;;;;;22.98;3.08;;;7.70;99.90;;;;;;5023963;28;20037;-63
2023/01/12 01:52:20;;;;;;;23.20;4.68;;;7.70;99.90;;;;;;5019814;28;20096;-63
2023/01/12 01:54:52;;;;;;;17.40;3.80;;;7.70;99.90;;;;;;5020454;28;20033;-63
2023/01/12 01:57:19;;;;;;;19.77;3.45;;;7.70;99.90;;;;;;5015258;28;20042;-62
2023/01/12 01:59:51;;;;;;;20.00;3.50;;;7.70;99.90;;;;;;5021718;28;20067;-63
2023/01/12 02:02:17;;;;;;;19.77;4.53;;;7.70;99.90;;;;;;5021806;28;20529;-63
2023/01/12 02:04:43;;;;;;;18.52;3.80;;;7.80;99.90;;;;;;5022748;28;20571;-63
2023/01/12 02:07:09;;;;;;;22.52;3.30;;;7.70;99.90;;;;;;5024681;28;20404;-62
2023/01/12 02:09:35;;;;;;;17.65;3.70;;;7.70;99.90;;;;;;5027228;28;20029;-63
2023/01/12 02:17:38;;;;;;;22.85;3.92;;;7.90;99.90;;;;;;5021429;28;20053;-62
2023/01/12 02:20:47;;;;;;;17.00;4.25;;;7.80;99.90;;;;;;5017242;28;20046;-62
2023/01/12 02:23:41;;;;;;;13.75;3.83;;;7.80;99.90;;;;;;5020253;28;20489;-63
2023/01/12 02:26:47;;;;;;;16.02;3.65;;;7.80;99.90;;;;;;5020754;28;20133;-62
2023/01/12 02:29:59;;;;;;;15.45;3.28;;;7.80;99.90;;;;;;5018696;28;20143;-62
2023/01/12 02:32:37;;;;;;;20.80;4.05;;;8.00;99.90;;;;;;5019392;28;20473;-61
2023/01/12 02:35:19;;;;;;;12.75;4.10;;;8.00;99.90;;;;;;5020805;28;20044;-61
2023/01/12 02:38:17;;;;;;;20.52;3.95;;;8.00;99.90;;;;;;5019721;28;20046;-63
2023/01/12 02:41:06;;;;;;;16.67;3.67;;;8.00;99.90;;;;;;4999800;28;20046;-62
2023/01/12 02:43:35;;;;;;;15.27;3.60;;;8.10;99.90;;;;;;5021989;28;20037;-63
2023/01/12 02:46:27;;;;;;;13.98;3.15;;;8.00;99.90;;;;;;5019977;28;20062;-63
2023/01/12 02:49:09;;;;;;;17.23;4.07;;;8.00;99.90;;;;;;5022522;28;20068;-62
2023/01/12 02:51:49;;;;;;;16.17;3.38;;;7.80;99.90;;;;;;5021273;28;20066;-63
2023/01/12 02:54:18;;;;;;;18.00;4.10;;;7.70;99.90;;;;;;5014748;28;20473;-64
2023/01/12 02:56:54;;;;;;;19.58;3.67;;;7.70;99.90;;;;;;5022183;28;20487;-63
2023/01/12 02:59:27;;;;;;;20.92;3.63;;;7.70;99.90;;;;;;5019753;28;20069;-63
2023/01/12 03:01:59;;;;;;;27.20;5.20;;;7.70;99.90;;;;;;5018549;28;20494;-63
2023/01/12 03:04:26;;;;;;;31.10;4.80;;;7.80;99.90;;;;;;5016760;28;20760;-63
2023/01/12 03:06:55;;;;;;;18.05;4.30;;;7.80;99.90;;;;;;5007444;28;20192;-63
2023/01/12 03:09:25;;;;;;;26.75;5.32;;;7.80;99.90;;;;;;5025993;28;20080;-62
2023/01/12 03:11:52;;;;;;;;;;;7.80;99.90;;;;;;5015905;28;20048;-64
2023/01/12 03:14:20;;;;;;;20.58;4.32;;;7.80;99.90;;;;;;5014145;28;19967;-64
2023/01/12 03:16:45;;;;;;;21.05;5.78;;;7.80;99.90;;;;;;5017684;28;20061;-65
2023/01/12 03:19:19;;;;;;;15.88;4.68;;;7.70;99.90;;;;;;5015900;28;20485;-65
2023/01/12 03:21:56;;;;;;;26.40;5.43;;;7.80;99.90;;;;;;5019357;28;20037;-64
2023/01/12 03:24:28;;;;;;;18.13;4.32;;;7.70;99.90;;;;;;5016260;28;20045;-64
2023/01/12 03:27:00;;;;;;;22.65;5.18;;;7.80;99.90;;;;;;5018980;28;20149;-65
2023/01/12 03:29:36;;;;;;;23.10;5.70;;;7.70;99.90;;;;;;5012059;28;20038;-65
2023/01/12 03:32:03;;;;;;;21.58;4.93;;;7.80;99.90;;;;;;5010135;28;20042;-66
2023/01/12 03:34:30;;;;;;;21.67;5.32;;;7.80;99.90;;;;;;5016358;28;20041;-65
2023/01/12 03:37:14;;;;;;;22.08;5.30;;;7.80;99.90;;;;;;5025988;28;20485;-65
2023/01/12 03:40:01;;;;;;;23.35;5.50;;;7.80;99.90;;;;;;5017692;28;20377;-67
2023/01/12 03:42:54;;;;;;;24.20;6.05;;;7.80;99.90;;;;;;5011876;28;20041;-66
2023/01/12 03:45:31;;;;;;;22.63;5.40;;;7.80;99.90;;;;;;5018307;28;20567;-66
2023/01/12 03:48:16;;;;;;;23.23;5.07;;;7.90;99.90;;;;;;5013378;28;20053;-65
2023/01/12 03:50:47;;;;;;;22.38;4.95;;;7.90;99.90;;;;;;5020082;28;20119;-65
2023/01/12 03:53:17;;;;;;;23.80;5.88;;;7.90;99.90;;;;;;5019994;28;20041;-65
2023/01/12 03:55:46;;;;;;;18.02;5.10;;;7.90;99.90;;;;;;5012627;28;20042;-66
2023/01/12 03:58:12;;;;;;;17.38;4.90;;;8.00;99.90;;;;;;5017909;28;20041;-66
2023/01/12 04:00:37;;;;;;;12.90;4.40;;;7.90;99.90;;;;;;5017579;28;20527;-64
2023/01/12 04:03:14;;;;;;;16.40;4.03;;;8.00;99.90;;;;;;5019329;28;20044;-65
2023/01/12 04:05:40;;;;;;;18.30;4.18;;;8.00;99.90;;;;;;5013006;28;20060;-65
2023/01/12 04:08:07;;;;;;;16.08;4.55;;;8.00;99.90;;;;;;5021270;28;20052;-67
2023/01/12 04:10:33;;;;;;;17.00;4.80;;;7.90;99.90;;;;;;5026176;28;20035;-66
2023/01/12 04:12:58;;;;;;;16.48;4.32;;;7.90;99.90;;;;;;5026998;28;20609;-66
2023/01/12 04:15:24;;;;;;;15.98;4.30;;;7.90;99.90;;;;;;5017270;28;20033;-66
2023/01/12 04:17:49;;;;;;;13.10;4.50;;;7.90;99.90;;;;;;5019852;28;20060;-64
2023/01/12 04:20:15;;;;;;;14.32;4.50;;;7.90;99.90;;;;;;5014872;28;20045;-65
2023/01/12 04:22:43;;;;;;;12.68;4.30;;;7.90;99.90;;;;;;5019376;28;20037;-65
2023/01/12 04:25:18;;;;;;;17.30;5.22;;;7.90;99.90;;;;;;5021231;28;20136;-65
2023/01/12 04:27:48;;;;;;;21.55;5.30;;;7.90;99.90;;;;;;5015014;28;20044;-65
2023/01/12 04:30:16;;;;;;;18.00;5.35;;;7.90;99.90;;;;;;5011401;28;20113;-65
2023/01/12 04:32:43;;;;;;;14.70;5.32;;;7.90;99.90;;;;;;5025817;28;20140;-66
2023/01/12 04:35:11;;;;;;;16.15;4.90;;;7.90;99.90;;;;;;5018654;28;20052;-68
2023/01/12 04:37:37;;;;;;;13.75;4.30;;;7.90;99.90;;;;;;5018785;28;20053;-64
2023/01/12 04:40:04;;;;;;;9.65;4.13;;;8.00;99.90;;;;;;5018333;28;20061;-65
2023/01/12 04:45:13;;;;;;;11.45;3.40;;;8.00;99.90;;;;;;5024094;28;20053;-66
2023/01/12 04:47:39;;;;;;;12.18;3.22;;;7.90;99.90;;;;;;5027741;28;20041;-64
2023/01/12 04:50:05;;;;;;;12.02;3.70;;;7.90;99.90;;;;;;4996137;28;20037;-64
2023/01/12 04:52:30;;;;;;;9.90;3.28;;;7.90;99.90;;;;;;5021719;28;20040;-65
2023/01/12 04:54:56;;;;;;;11.90;3.97;;;8.00;99.90;;;;;;5012687;28;20130;-66
2023/01/12 04:57:22;;;;;;;11.65;3.80;;;7.90;99.90;;;;;;5013159;28;20041;-66
2023/01/12 04:59:47;;;;;;;13.02;4.25;;;8.00;99.90;;;;;;5024207;28;20037;-64
2023/01/12 05:02:13;;;;;;;11.40;4.03;;;7.80;99.90;;;;;;5021744;28;20038;-64
2023/01/12 05:04:38;;;;;;;12.60;3.55;;;8.10;99.90;;;;;;5016684;28;20040;-65
2023/01/12 05:07:04;;;;;;;13.70;4.50;;;7.80;99.90;;;;;;5011764;28;20041;-64
2023/01/12 05:12:13;;;;;;;7.35;2.83;;;8.00;99.90;;;;;;5025051;28;20046;-65
2023/01/12 05:14:39;;;;;;;11.73;3.10;;;7.80;99.90;;;;;;5025231;28;20026;-64
2023/01/12 05:17:04;;;;;;;9.45;2.78;;;7.70;99.90;;;;;;5012079;28;20083;-66
2023/01/12 05:19:30;;;;;;;5.20;2.58;;;7.70;99.90;;;;;;5023220;28;20048;-66
2023/01/12 05:21:55;;;;;;;9.25;2.30;;;7.70;99.90;;;;;;5016369;28;20497;-65
2023/01/12 05:24:21;;;;;;;4.60;2.00;;;7.60;99.90;;;;;;5014439;28;20041;-65
2023/01/12 05:26:47;;;;;;;7.45;2.25;;;7.70;99.90;;;;;;5024175;28;20041;-66
2023/01/12 05:29:12;;;;;;;9.00;2.20;;;7.80;99.90;;;;;;5015152;28;20077;-65
2023/01/12 05:31:38;;;;;;;5.80;2.08;;;7.60;99.90;;;;;;5018353;28;20033;-64
2023/01/12 05:34:03;;;;;;;7.32;2.03;;;7.80;99.90;;;;;;5023209;28;20449;-66
2023/01/12 05:36:29;;;;;;;7.68;1.95;;;7.70;99.90;;;;;;5025089;28;20046;-65
2023/01/12 05:38:55;;;;;;;8.98;2.80;;;7.60;99.90;;;;;;5020325;28;20041;-65
2023/01/12 05:41:21;;;;;;;8.18;2.10;;;7.70;99.90;;;;;;5018231;28;20034;-63
2023/01/12 05:43:50;;;;;;;7.35;1.95;;;7.70;99.90;;;;;;5015628;28;20050;-64
2023/01/12 05:46:19;;;;;;;3.53;1.73;;;7.80;99.90;;;;;;5021028;28;20057;-64
2023/01/12 05:48:45;;;;;;;7.78;1.70;;;7.70;99.90;;;;;;5017718;28;20034;-63
2023/01/12 05:51:11;;;;;;;3.85;1.45;;;7.50;99.90;;;;;;5021186;28;20041;-64
2023/01/12 05:53:37;;;;;;;7.28;1.75;;;7.50;99.90;;;;;;5025619;28;20049;-66
2023/01/12 05:56:08;;;;;;;7.35;1.55;;;7.50;99.90;;;;;;5020064;28;20060;-64
2023/01/12 05:58:34;;;;;;;5.57;2.03;;;7.50;99.90;;;;;;5021945;28;20049;-64
2023/01/12 06:00:59;;;;;;;5.05;1.63;;;7.70;99.90;;;;;;5015017;28;20049;-64
2023/01/12 06:03:25;;;;;;;4.47;1.63;;;7.50;99.90;;;;;;5025660;28;20045;-68
2023/01/12 06:05:57;;;;;;;5.13;1.50;;;7.70;99.90;;;;;;5022706;28;20373;-64
2023/01/12 06:08:23;;;;;;;6.80;1.60;;;7.80;99.90;;;;;;5015719;28;20087;-65
2023/01/12 06:10:48;;;;;;;5.00;1.77;;;7.70;99.90;;;;;;5026216;28;20041;-65
2023/01/12 06:16:04;;;;;;;3.40;1.60;;;7.80;99.90;;;;;;5020292;28;20073;-63
2023/01/12 06:18:37;;;;;;;5.50;1.35;;;7.90;99.90;;;;;;5021892;28;20100;-66
2023/01/12 06:21:04;;;;;;;5.20;1.65;;;7.90;99.90;;;;;;5026496;28;20801;-64
2023/01/12 06:23:30;;;;;;;8.32;2.08;;;7.90;99.90;;;;;;5018225;28;20092;-64
2023/01/12 06:26:00;;;;;;;5.30;1.70;;;8.00;99.90;;;;;;5015883;28;20061;-65
2023/01/12 06:28:26;;;;;;;7.50;2.10;;;8.00;99.90;;;;;;5012746;28;20104;-63
2023/01/12 06:30:56;;;;;;;3.90;1.50;;;7.90;99.90;;;;;;5019230;28;20034;-63
2023/01/12 06:33:22;;;;;;;6.03;1.80;;;7.90;99.90;;;;;;5014510;28;20030;-64
2023/01/12 06:35:48;;;;;;;6.32;1.60;;;7.80;99.90;;;;;;5022807;28;20124;-64
2023/01/12 06:38:14;;;;;;;6.15;1.98;;;8.00;99.90;;;;;;5031118;28;20045;-64
2023/01/12 06:40:40;;;;;;;6.25;1.70;;;7.90;99.90;;;;;;5025389;28;20040;-64
2023/01/12 06:43:05;;;;;;;5.45;1.55;;;7.90;99.90;;;;;;5025834;28;20048;-64
2023/01/12 06:45:31;;;;;;;3.88;1.40;;;8.20;99.90;;;;;;5018002;28;20064;-62
2023/01/12 06:47:57;;;;;;;2.00;1.15;;;8.00;99.90;;;;;;5020035;28;20385;-65
2023/01/12 06:50:23;;;;;;;6.10;2.00;;;8.30;99.90;;;;;;5016221;28;20034;-64
2023/01/12 06:52:49;;;;;;;2.97;1.23;;;8.20;99.90;;;;;;5014229;28;20026;-64
2023/01/12 06:55:14;;;;;;;2.05;1.20;;;8.30;99.90;;;;;;5018935;28;20452;-64
2023/01/12 06:57:40;;;;;;;1.80;1.30;;;8.30;99.90;;;;;;5030542;28;20042;-62
2023/01/12 07:00:07;;;;;;;2.28;1.08;;;8.30;99.90;;;;;;5016523;28;20040;-64
2023/01/12 07:02:32;;;;;;;2.75;1.30;;;8.40;99.90;;;;;;5020122;28;20132;-65
2023/01/12 07:04:58;;;;;;;2.85;1.23;;;8.40;99.90;;;;;;5029343;28;20148;-66
2023/01/12 07:07:23;;;;;;;5.60;1.63;;;8.30;99.90;;;;;;5024987;28;20146;-63
2023/01/12 07:09:49;;;;;;;3.38;1.48;;;8.30;99.90;;;;;;5030641;28;20096;-64
2023/01/12 07:12:15;;;;;;;4.53;1.42;;;8.50;99.90;;;;;;5026379;28;20044;-66
2023/01/12 07:14:40;;;;;;;3.38;1.38;;;8.50;99.90;;;;;;5032031;28;20473;-65
2023/01/12 07:17:06;;;;;;;4.68;1.50;;;8.60;99.90;;;;;;5030370;28;20041;-65
2023/01/12 07:19:31;;;;;;;2.67;1.55;;;8.70;99.90;;;;;;5015656;28;20041;-65
2023/01/12 07:21:57;;;;;;;2.88;1.30;;;8.60;99.90;;;;;;5011608;28;20125;-64
2023/01/12 07:24:22;;;;;;;2.65;1.38;;;8.50;99.90;;;;;;5018286;28;20107;-64
2023/01/12 07:26:49;;;;;;;2.60;1.48;;;8.50;99.90;;;;;;5028137;28;20039;-64
2023/01/12 07:29:15;;;;;;;3.97;1.77;;;8.60;99.90;;;;;;5027325;28;20045;-65
2023/01/12 07:31:41;;;;;;;5.47;1.83;;;8.50;99.90;;;;;;5022938;28;20029;-64
2023/01/12 07:34:06;;;;;;;2.75;1.45;;;8.70;99.90;;;;;;5024931;28;20108;-64
2023/01/12 07:36:32;;;;;;;1.83;1.50;;;8.70;99.90;;;;;;5014527;28;20096;-65
2023/01/12 07:38:58;;;;;;;1.60;1.50;;;8.80;99.90;;;;;;5014463;28;20034;-65
2023/01/12 07:44:08;;;;;;;4.63;1.95;;;8.90;99.90;;;;;;5015555;28;20492;-65
2023/01/12 07:46:34;;;;;;;4.07;1.80;;;9.00;99.90;;;;;;5022134;28;20049;-64
2023/01/12 07:48:59;;;;;;;2.88;1.98;;;8.80;99.90;;;;;;5022981;28;20053;-66
2023/01/12 07:51:25;;;;;;;4.95;2.22;;;8.70;99.90;;;;;;5012237;28;20560;-63
2023/01/12 07:53:51;;;;;;;4.22;1.70;;;8.90;99.90;;;;;;5020854;28;20025;-64
2023/01/12 07:56:17;;;;;;;4.10;2.00;;;8.80;99.90;;;;;;5018975;28;20037;-65
2023/01/12 07:58:47;;;;;;;3.35;1.95;;;9.10;99.90;;;;;;5008762;28;20104;-65
2023/01/12 08:01:13;;;;;;;4.95;2.20;;;9.00;99.90;;;;;;5020352;28;20123;-64
2023/01/12 08:03:38;;;;;;;5.35;2.47;;;8.90;99.90;;;;;;5014537;28;20034;-66
2023/01/12 08:06:04;;;;;;;5.18;2.63;;;8.90;99.90;;;;;;5024872;28;20045;-65
2023/01/12 08:08:30;;;;;;;6.45;2.42;;;9.00;99.90;;;;;;5013080;28;20042;-65
2023/01/12 08:11:00;;;;;;;6.47;3.13;;;9.00;99.90;;;;;;5014163;28;20032;-64
2023/01/12 08:13:26;;;;;;;5.57;3.10;;;8.90;99.90;;;;;;5022892;28;20038;-64
2023/01/12 08:15:53;;;;;;;4.85;2.38;;;9.00;99.90;;;;;;5015788;28;20407;-65
2023/01/12 08:18:32;;;;;;;7.43;2.97;;;9.00;99.90;;;;;;5023372;28;20053;-66
2023/01/12 08:21:01;;;;;;;8.38;2.75;;;9.30;99.90;;;;;;5029186;28;20607;-65
2023/01/12 08:23:33;;;;;;;7.32;2.83;;;9.10;99.90;;;;;;5017805;28;20037;-64
2023/01/12 08:26:03;;;;;;;7.07;3.30;;;9.20;99.90;;;;;;5026386;28;20049;-64
2023/01/12 08:28:45;;;;;;;9.15;3.83;;;9.10;99.90;;;;;;5014284;28;20045;-65
2023/01/12 08:31:13;;;;;;;11.13;3.60;;;9.10;99.90;;;;;;5017198;28;20131;-64
2023/01/12 08:33:39;;;;;;;11.70;4.07;;;9.10;99.90;;;;;;5021872;28;20052;-65
2023/01/12 08:36:09;;;;;;;13.30;4.20;;;9.50;99.90;;;;;;5015632;28;20029;-65
2023/01/12 08:38:34;;;;;;;11.15;4.10;;;9.10;99.90;;;;;;5013626;28;20499;-65
2023/01/12 08:44:14;;;;;;;19.20;4.47;;;9.60;99.90;;;;;;4996945;28;20047;-65
2023/01/12 08:46:51;;;;;;;15.32;4.03;;;9.40;99.90;;;;;;5014055;28;20060;-64
2023/01/12 08:49:20;;;;;;;13.88;3.17;;;9.60;99.90;;;;;;5026040;28;20045;-66
2023/01/12 08:51:46;;;;;;;21.85;4.20;;;9.30;99.90;;;;;;5023280;28;20041;-65
2023/01/12 08:54:14;;;;;;;27.08;4.47;;;9.70;99.90;;;;;;5025372;28;20431;-64
2023/01/12 08:56:39;;;;;;;25.17;4.57;;;9.80;99.90;;;;;;5017939;28;20049;-65
2023/01/12 08:59:05;;;;;;;22.63;3.97;;;9.60;99.90;;;;;;5027651;28;20029;-64
2023/01/12 09:01:32;;;;;;;26.83;4.22;;;9.80;99.90;;;;;;5017557;28;20377;-64
2023/01/12 09:03:58;;;;;;;18.70;4.07;;;9.80;99.90;;;;;;5029683;28;20037;-63
2023/01/12 09:06:34;;;;;;;26.65;4.45;;;10.00;99.90;;;;;;5018731;28;20385;-64
2023/01/12 09:09:03;;;;;;;28.85;4.72;;;9.70;99.90;;;;;;5017441;28;20049;-63
2023/01/12 09:11:29;;;;;;;31.30;3.95;;;10.00;99.90;;;;;;5027328;28;20048;-64
2023/01/12 09:13:57;;;;;;;21.45;4.47;;;10.00;99.90;;;;;;5011977;28;20479;-64
2023/01/12 09:16:24;;;;;;;21.85;3.65;;;9.90;99.90;;;;;;5009832;28;20080;-63
2023/01/12 09:18:50;;;;;;;26.60;5.07;;;9.80;99.90;;;;;;5022114;28;20049;-62
2023/01/12 09:21:18;;;;;;;24.67;3.92;;;9.80;99.90;;;;;;5015580;28;20053;-64
2023/01/12 09:23:45;;;;;;;20.17;3.80;;;10.20;99.90;;;;;;5021872;28;20510;-64
2023/01/12 09:26:13;;;;;;;17.98;3.53;;;10.10;99.90;;;;;;5014971;28;20570;-64
2023/01/12 09:28:39;;;;;;;32.90;4.88;;;10.20;99.90;;;;;;5027096;28;20052;-64
2023/01/12 09:31:11;;;;;;;27.23;3.67;;;9.90;99.90;;;;;;5035693;28;20041;-64
2023/01/12 09:33:38;;;;;;;24.95;4.47;;;10.20;99.90;;;;;;5015097;28;20042;-64
2023/01/12 09:36:07;;;;;;;24.70;4.25;;;10.30;99.90;;;;;;5025324;28;20041;-63
2023/01/12 09:38:37;;;;;;;22.33;4.13;;;10.10;99.90;;;;;;5011082;28;20381;-64
2023/01/12 09:47:06;;;;;;;22.88;4.82;;;10.30;99.90;;;;;;4994072;28;20093;-63
2023/01/12 09:49:41;;;;;;;23.55;4.07;;;10.00;99.90;;;;;;5005426;28;20479;-63
2023/01/12 09:52:21;;;;;;;27.17;4.20;;;10.20;99.90;;;;;;5013433;28;20112;-63
2023/01/12 09:54:48;;;;;;;22.73;4.13;;;10.20;99.90;;;;;;5017794;28;20045;-64
2023/01/12 09:57:37;;;;;;;19.85;4.35;;;10.30;99.90;;;;;;5016091;28;20042;-64
2023/01/12 10:00:15;;;;;;;21.80;3.47;;;10.30;99.90;;;;;;5017549;28;20382;-63
2023/01/12 10:02:45;;;;;;;17.45;3.63;;;10.20;99.90;;;;;;5018272;28;20107;-63
2023/01/12 10:05:52;;;;;;;22.30;4.10;;;10.20;99.90;;;;;;5012284;28;20564;-62
2023/01/12 10:08:33;;;;;;;20.55;3.25;;;10.30;99.90;;;;;;5019873;28;20046;-63
2023/01/12 10:11:16;;;;;;;23.35;3.92;;;10.20;99.90;;;;;;5023008;28;20060;-62
2023/01/12 10:13:52;;;;;;;23.67;3.42;;;10.30;99.90;;;;;;5011725;28;20511;-63
2023/01/12 10:16:39;;;;;;;17.35;3.47;;;10.30;99.90;;;;;;5011467;28;20488;-62
2023/01/12 10:19:18;;;;;;;20.42;3.90;;;10.30;99.90;;;;;;5020038;28;20492;-62
2023/01/12 10:21:43;;;;;;;18.92;3.63;;;10.20;99.90;;;;;;5028557;28;20141;-62
2023/01/12 10:24:13;;;;;;;28.73;4.32;;;10.10;99.90;;;;;;5021375;28;20149;-62
2023/01/12 10:26:44;;;;;;;19.30;4.07;;;10.20;99.90;;;;;;5025846;28;20063;-62
2023/01/12 10:29:11;;;;;;;20.52;3.88;;;10.30;99.90;;;;;;5019509;28;20443;-62
2023/01/12 10:31:36;;;;;;;25.83;4.43;;;10.40;99.90;;;;;;5026199;28;20045;-62
2023/01/12 10:34:06;;;;;;;20.52;4.10;;;10.40;99.90;;;;;;5021360;28;20084;-63
2023/01/12 10:36:48;;;;;;;24.83;5.53;;;10.40;99.90;;;;;;5021000;28;20041;-61
2023/01/12 10:39:38;;;;;;;21.40;3.67;;;10.30;99.90;;;;;;5022912;28;20118;-61
2023/01/12 10:45:19;;;;;;;16.17;4.10;;;10.40;99.90;;;;;;5022430;28;20056;-62
2023/01/12 10:47:46;;;;;;;17.80;4.25;;;10.40;99.90;;;;;;5022151;28;20053;-63
2023/01/12 10:50:26;;;;;;;23.13;4.30;;;10.50;99.90;;;;;;5019270;28;20041;-62
2023/01/12 10:53:02;;;;;;;18.80;3.92;;;10.70;99.90;;;;;;5022096;28;20044;-61
2023/01/12 10:55:31;;;;;;;21.45;4.55;;;10.60;99.90;;;;;;5014354;28;20480;-63
2023/01/12 10:57:57;;;;;;;17.02;3.97;;;10.80;99.90;;;;;;5014031;28;20046;-62
2023/01/12 11:00:25;;;;;;;26.48;4.88;;;10.70;99.90;;;;;;5024320;28;20485;-63
2023/01/12 11:02:51;;;;;;;18.20;3.75;;;10.70;99.90;;;;;;5021767;28;20148;-62
2023/01/12 11:05:36;;;;;;;14.75;3.17;;;10.70;99.90;;;;;;5028395;28;20127;-62
2023/01/12 11:08:03;;;;;;;17.38;3.72;;;10.80;99.90;;;;;;5014071;28;20033;-62
2023/01/12 11:10:32;;;;;;;14.52;3.75;;;10.70;99.90;;;;;;5029711;28;20037;-63
2023/01/12 11:13:03;;;;;;;14.18;3.25;;;10.80;99.90;;;;;;5031028;28;20468;-63
2023/01/12 11:15:32;;;;;;;19.08;4.45;;;10.60;99.90;;;;;;5027173;28;20091;-62
2023/01/12 11:18:25;;;;;;;16.70;3.10;;;10.80;99.90;;;;;;5019382;28;22053;-62
2023/01/12 11:20:58;;;;;;;16.25;3.08;;;10.80;99.90;;;;;;5016304;28;20116;-63
2023/01/12 11:23:32;;;;;;;14.93;2.88;;;10.60;99.90;;;;;;5027408;28;20045;-63
2023/01/12 11:26:02;;;;;;;16.92;3.80;;;10.80;99.90;;;;;;5015114;28;20038;-63
2023/01/12 11:28:36;;;;;;;15.65;4.07;;;10.60;99.90;;;;;;5022631;28;20144;-63
2023/01/12 11:31:27;;;;;;;16.83;3.55;;;10.80;99.90;;;;;;5013453;28;20042;-63
2023/01/12 11:33:55;;;;;;;;;;;10.70;99.90;;;;;;5024694;28;20128;-63
2023/01/12 11:36:29;;;;;;;15.38;3.47;;;10.80;99.90;;;;;;5017008;28;19955;-62
2023/01/12 11:39:27;;;;;;;19.27;3.58;;;10.80;99.90;;;;;;5030423;28;20052;-61
2023/01/12 11:44:47;;;;;;;16.80;3.67;;;10.70;99.90;;;;;;5027835;28;20535;-62
2023/01/12 11:47:19;;;;;;;21.52;3.47;;;10.70;99.90;;;;;;5025498;28;20104;-62
2023/01/12 11:50:17;;;;;;;19.17;3.47;;;10.80;99.90;;;;;;5017241;28;20377;-63
2023/01/12 11:52:43;;;;;;;17.95;3.20;;;10.80;99.90;;;;;;5015005;28;20029;-61
2023/01/12 11:55:15;;;;;;;20.33;2.92;;;10.80;99.90;;;;;;5013144;28;20042;-62
2023/01/12 11:57:52;;;;;;;14.45;2.85;;;10.80;99.90;;;;;;5030212;28;20041;-62
2023/01/12 12:00:57;;;;;;;19.30;3.33;;;10.80;99.90;;;;;;5014370;28;20452;-61
2023/01/12 12:03:24;;;;;;;15.18;2.78;;;10.90;99.90;;;;;;5014586;28;20042;-62
2023/01/12 12:06:28;;;;;;;9.88;2.80;;;10.80;99.90;;;;;;5023319;28;20071;-62
2023/01/12 12:09:18;;;;;;;15.27;3.30;;;10.80;99.90;;;;;;5019938;28;20060;-62
2023/01/12 12:11:56;;;;;;;18.00;3.05;;;10.70;99.90;;;;;;5016447;28;20053;-62
2023/01/12 12:14:44;;;;;;;24.85;6.10;;;10.70;99.90;;;;;;5026525;28;20038;-62
2023/01/12 12:17:19;;;;;;;17.08;3.67;;;10.80;99.90;;;;;;5022743;28;20432;-62
2023/01/12 12:19:56;;;;;;;14.30;3.15;;;10.80;99.90;;;;;;5016818;28;20033;-63
2023/01/12 12:22:44;;;;;;;17.80;3.22;;;10.80;99.90;;;;;;5018891;28;20042;-63
2023/01/12 12:25:12;;;;;;;16.52;3.47;;;10.80;99.90;;;;;;5017677;28;20606;-62
2023/01/12 12:27:49;;;;;;;14.35;3.83;;;10.80;99.90;;;;;;5022855;28;20491;-61
2023/01/12 12:30:59;;;;;;;14.07;3.45;;;10.80;99.90;;;;;;5011858;28;20048;-60
2023/01/12 12:33:43;;;;;;;15.02;3.83;;;10.80;99.90;;;;;;5026926;28;20052;-61
2023/01/12 12:36:16;;;;;;;14.27;3.15;;;10.90;99.90;;;;;;5016442;28;20081;-61
2023/01/12 12:39:02;;;;;;;13.98;3.15;;;10.90;99.90;;;;;;5012289;28;20093;-62
2023/01/12 12:45:16;;;;;;;15.10;3.25;;;10.80;99.90;;;;;;5022585;28;20045;-62
2023/01/12 12:48:01;;;;;;;16.88;3.47;;;10.70;99.90;;;;;;5022259;28;20068;-61
2023/01/12 12:50:39;;;;;;;14.00;3.25;;;10.70;99.90;;;;;;5024059;28;20078;-61
2023/01/12 12:53:09;;;;;;;15.00;3.28;;;10.70;99.90;;;;;;5020004;28;20042;-61
2023/01/12 12:55:35;;;;;;;20.75;3.75;;;10.70;99.90;;;;;;5021873;28;20030;-61
2023/01/12 12:58:20;;;;;;;14.35;3.55;;;10.70;99.90;;;;;;5018889;28;20358;-61
2023/01/12 13:00:46;;;;;;;13.82;3.15;;;10.60;99.90;;;;;;5013266;28;20099;-61
2023/01/12 13:03:40;;;;;;;12.57;2.85;;;10.60;99.90;;;;;;5021795;28;20672;-61
2023/01/12 13:06:28;;;;;;;15.52;3.17;;;10.60;99.90;;;;;;5028702;28;20073;-60
2023/01/12 13:08:57;;;;;;;15.68;3.25;;;10.60;99.90;;;;;;5013116;28;20378;-61
2023/01/12 13:11:47;;;;;;;12.50;2.80;;;10.60;99.90;;;;;;5012947;28;20077;-62
2023/01/12 13:14:20;;;;;;;18.85;3.45;;;10.60;99.90;;;;;;5007457;28;20052;-61
2023/01/12 13:16:50;;;;;;;16.27;3.20;;;10.50;99.90;;;;;;5011960;28;20038;-60
2023/01/12 13:19:54;;;;;;;23.60;3.75;;;10.60;99.90;;;;;;5012512;28;20037;-61
2023/01/12 13:22:48;;;;;;;20.80;3.97;;;10.50;99.90;;;;;;5022641;28;20041;-62
2023/01/12 13:25:19;;;;;;;19.70;3.70;;;10.50;99.90;;;;;;5012896;28;20034;-60
2023/01/12 13:28:00;;;;;;;18.13;3.80;;;10.50;99.90;;;;;;5025568;28;20045;-63
2023/01/12 13:30:25;;;;;;;;;;;10.50;99.90;;;;;;5016094;28;20080;-62
2023/01/12 13:33:12;;;;;;;18.50;4.15;;;10.60;99.90;;;;;;5017434;28;19952;-64
2023/01/12 13:35:39;;;;;;;15.85;4.25;;;10.50;99.90;;;;;;5019871;28;20434;-63
2023/01/12 13:38:31;;;;;;;18.63;4.10;;;10.60;99.90;;;;;;5014146;28;20054;-65
2023/01/12 13:41:00;;;;;;;18.52;3.88;;;10.60;99.90;;;;;;5018059;28;20386;-63
2023/01/12 13:43:33;;;;;;;19.60;4.33;;;10.60;99.90;;;;;;5022946;28;20462;-65
2023/01/12 13:46:10;;;;;;;22.27;3.70;;;10.60;99.90;;;;;;5017073;28;20062;-64
2023/01/12 13:48:36;;;;;;;19.60;3.47;;;10.70;99.90;;;;;;5015637;28;20405;-64
2023/01/12 13:51:14;;;;;;;18.77;3.47;;;10.70;99.90;;;;;;5026304;28;20053;-65